createdAt,value
2019-06-08T00:00:09.359Z,1.30
2019-06-08T00:02:37.539Z,1.40
2019-06-08T00:05:06.389Z,1.60
2019-06-08T00:07:34.582Z,1.30
2019-06-08T00:10:03.747Z,1.20
2019-06-08T00:12:31.945Z,1.33
2019-06-08T00:15:00.121Z,1.93
2019-06-08T00:17:38.137Z,1.30
2019-06-08T00:19:58.207Z,1.53
2019-06-08T00:22:26.387Z,1.17
2019-06-08T00:24:54.668Z,1.40
2019-06-08T00:27:23.369Z,1.67
2019-06-08T00:29:52.715Z,1.53
2019-06-08T00:32:20.907Z,1.53
2019-06-08T00:34:49.090Z,1.17
2019-06-08T00:37:17.291Z,1.27
2019-06-08T00:39:45.475Z,1.40
2019-06-08T00:42:15.019Z,1.67
2019-06-08T00:44:43.447Z,1.20
2019-06-08T00:47:11.638Z,1.40
2019-06-08T00:49:39.878Z,1.63
2019-06-08T00:52:08.079Z,1.90
2019-06-08T00:54:36.282Z,2.23
2019-06-08T00:57:04.525Z,1.80
2019-06-08T00:59:32.726Z,1.33
2019-06-08T01:02:01.081Z,1.80
2019-06-08T01:04:29.285Z,1.70
2019-06-08T01:06:57.447Z,2.33
2019-06-08T01:09:26.335Z,1.60
2019-06-08T01:11:54.654Z,1.50
2019-06-08T01:14:22.979Z,1.50
2019-06-08T01:16:51.198Z,1.63
2019-06-08T01:19:19.423Z,2.67
2019-06-08T01:21:47.619Z,2.30
2019-06-08T01:24:15.811Z,1.73
2019-06-08T01:26:44.084Z,1.60
2019-06-08T01:29:12.262Z,1.50
2019-06-08T01:31:40.460Z,1.40
2019-06-08T01:34:08.664Z,1.43
2019-06-08T01:36:36.842Z,1.63
2019-06-08T01:39:06.330Z,1.87
2019-06-08T01:41:34.518Z,1.30
2019-06-08T01:44:02.718Z,1.50
2019-06-08T01:46:32.296Z,1.40
2019-06-08T01:49:00.694Z,1.40
2019-06-08T01:51:28.898Z,1.30
2019-06-08T01:53:57.089Z,1.43
2019-06-08T01:56:25.403Z,1.30
2019-06-08T01:58:53.599Z,1.30
2019-06-08T02:01:21.786Z,1.60
2019-06-08T02:03:49.978Z,1.27
2019-06-08T02:06:18.404Z,1.30
2019-06-08T02:08:46.767Z,1.60
2019-06-08T02:11:14.955Z,1.20
2019-06-08T02:13:43.140Z,1.40
2019-06-08T02:16:11.351Z,1.70
2019-06-08T02:18:50.279Z,1.40
2019-06-08T02:21:09.467Z,1.47
2019-06-08T02:23:37.649Z,2.00
2019-06-08T02:26:05.834Z,3.10
2019-06-08T02:28:34.036Z,2.07
2019-06-08T02:31:02.220Z,1.90
2019-06-08T02:33:32.295Z,1.50
2019-06-08T02:36:00.306Z,2.00
2019-06-08T02:38:29.976Z,1.60
2019-06-08T02:40:58.456Z,1.40
2019-06-08T02:43:26.640Z,1.43
2019-06-08T02:45:55.051Z,1.30
2019-06-08T02:48:23.231Z,1.40
2019-06-08T02:50:55.593Z,1.60
2019-06-08T02:53:24.562Z,1.40
2019-06-08T02:55:52.930Z,1.33
2019-06-08T02:58:21.761Z,1.97
2019-06-08T03:00:50.921Z,2.23
2019-06-08T03:03:19.277Z,1.47
2019-06-08T03:05:49.034Z,1.70
2019-06-08T03:08:17.499Z,1.57
2019-06-08T03:10:45.699Z,1.57
2019-06-08T03:13:13.883Z,1.43
2019-06-08T03:15:43.690Z,2.13
2019-06-08T03:18:12.149Z,1.63
2019-06-08T03:20:42.305Z,1.50
2019-06-08T03:23:10.218Z,1.37
2019-06-08T03:25:50.690Z,1.60
2019-06-08T03:28:08.407Z,1.60
2019-06-08T03:30:42.198Z,1.40
2019-06-08T03:33:06.501Z,1.80
2019-06-08T03:35:38.819Z,1.70
2019-06-08T03:38:04.592Z,1.67
2019-06-08T03:40:33.891Z,1.70
2019-06-08T03:43:02.231Z,2.03
2019-06-08T03:45:30.430Z,1.83
2019-06-08T03:47:58.627Z,2.00
2019-06-08T03:50:26.880Z,2.37
2019-06-08T03:52:55.076Z,1.90
2019-06-08T03:55:23.270Z,2.00
2019-06-08T03:57:51.482Z,1.53
2019-06-08T04:00:19.734Z,1.50
2019-06-08T04:02:47.919Z,1.40
2019-06-08T04:05:16.126Z,1.30
2019-06-08T04:07:46.485Z,1.17
2019-06-08T04:10:14.275Z,1.13
2019-06-08T04:12:44.054Z,1.27
2019-06-08T04:15:12.716Z,2.80
2019-06-08T04:17:42.158Z,1.97
2019-06-08T04:20:12.350Z,1.60
2019-06-08T04:22:44.141Z,1.30
2019-06-08T04:25:12.409Z,1.50
2019-06-08T04:27:42.164Z,1.20
2019-06-08T04:30:11.033Z,2.27
2019-06-08T04:32:40.733Z,1.60
2019-06-08T04:35:09.459Z,1.50
2019-06-08T04:37:38.235Z,2.30
2019-06-08T04:40:07.395Z,1.27
2019-06-08T04:42:35.607Z,1.20
2019-06-08T04:45:05.326Z,1.33
2019-06-08T04:47:33.746Z,3.20
2019-06-08T04:50:21.029Z,1.40
2019-06-08T04:52:32.911Z,2.03
2019-06-08T04:55:01.114Z,1.67
2019-06-08T04:57:29.303Z,1.40
2019-06-08T04:59:57.512Z,1.57
2019-06-08T05:02:25.687Z,1.43
2019-06-08T05:04:53.882Z,1.33
2019-06-08T05:07:22.072Z,1.40
2019-06-08T05:09:50.248Z,1.40
2019-06-08T05:12:18.446Z,2.07
2019-06-08T05:14:47.283Z,1.97
2019-06-08T05:17:15.612Z,1.30
2019-06-08T05:19:43.796Z,1.50
2019-06-08T05:22:12.008Z,1.33
2019-06-08T05:24:51.701Z,1.40
2019-06-08T05:27:30.001Z,1.50
2019-06-08T05:29:58.219Z,1.43
2019-06-08T05:32:26.573Z,1.40
2019-06-08T05:34:54.770Z,1.70
2019-06-08T05:37:22.966Z,1.40
2019-06-08T05:39:51.446Z,1.40
2019-06-08T05:42:19.849Z,1.70
2019-06-08T05:44:48.054Z,1.80
2019-06-08T05:47:16.243Z,1.57
2019-06-08T05:49:45.724Z,1.60
2019-06-08T05:52:14.019Z,1.80
2019-06-08T05:54:43.743Z,2.00
2019-06-08T05:57:12.031Z,2.00
2019-06-08T05:59:40.218Z,1.50
2019-06-08T06:02:08.435Z,2.03
2019-06-08T06:04:36.627Z,1.77
2019-06-08T06:07:04.898Z,1.50
2019-06-08T06:09:33.091Z,1.40
2019-06-08T06:12:01.293Z,1.60
2019-06-08T06:14:29.569Z,1.50
2019-06-08T06:16:57.787Z,1.50
2019-06-08T06:19:25.972Z,1.70
2019-06-08T06:21:54.259Z,1.30
2019-06-08T06:24:24.226Z,1.50
2019-06-08T06:26:52.543Z,1.60
2019-06-08T06:29:20.769Z,1.50
2019-06-08T06:31:49.767Z,1.40
2019-06-08T06:34:18.192Z,1.20
2019-06-08T06:36:46.410Z,1.63
2019-06-08T06:39:14.628Z,1.43
2019-06-08T06:41:44.039Z,1.53
2019-06-08T06:44:12.415Z,1.73
2019-06-08T06:46:41.814Z,1.50
2019-06-08T06:49:10.182Z,1.50
2019-06-08T06:51:38.370Z,1.80
2019-06-08T06:54:06.554Z,1.43
2019-06-08T06:56:34.779Z,2.00
2019-06-08T06:59:02.967Z,1.50
2019-06-08T07:01:31.167Z,1.95
2019-06-08T07:04:00.128Z,1.82
2019-06-08T07:06:28.319Z,1.80
2019-06-08T07:08:56.518Z,1.60
2019-06-08T07:11:25.030Z,1.30
2019-06-08T07:13:55.215Z,1.52
2019-06-08T07:16:23.575Z,2.17
2019-06-08T07:18:52.581Z,2.00
2019-06-08T07:21:20.915Z,2.42
2019-06-08T07:23:49.894Z,1.50
2019-06-08T07:26:19.134Z,1.82
2019-06-08T07:28:48.032Z,1.72
2019-06-08T07:31:17.227Z,1.77
2019-06-08T07:33:46.748Z,2.00
2019-06-08T07:36:15.502Z,1.50
2019-06-08T07:38:43.738Z,1.50
2019-06-08T07:41:11.954Z,1.40
2019-06-08T07:43:40.132Z,1.62
2019-06-08T07:46:08.323Z,1.40
2019-06-08T07:48:36.719Z,1.72
2019-06-08T07:51:04.886Z,1.60
2019-06-08T07:53:33.109Z,2.22
2019-06-08T07:56:01.437Z,1.37
2019-06-08T07:58:29.646Z,1.60
2019-06-08T08:01:06.421Z,1.95
2019-06-08T08:03:27.894Z,1.20
2019-06-08T08:05:56.719Z,1.40
2019-06-08T08:08:25.266Z,1.72
2019-06-08T08:10:54.548Z,1.47
2019-06-08T08:13:23.187Z,1.50
2019-06-08T08:15:53.727Z,1.60
2019-06-08T08:18:21.461Z,1.20
2019-06-08T08:20:51.050Z,1.60
2019-06-08T08:23:19.394Z,1.27
2019-06-08T08:25:49.142Z,1.55
2019-06-08T08:28:17.820Z,1.20
2019-06-08T08:30:48.093Z,1.60
2019-06-08T08:33:18.368Z,1.80
2019-06-08T08:35:48.076Z,1.57
2019-06-08T08:38:17.704Z,1.60
2019-06-08T08:40:48.424Z,1.60
2019-06-08T08:43:17.812Z,1.32
2019-06-08T08:45:47.704Z,1.17
2019-06-08T08:48:25.333Z,1.30
2019-06-08T08:50:48.183Z,2.00
2019-06-08T08:53:18.067Z,1.30
2019-06-08T08:55:48.023Z,1.50
2019-06-08T08:58:18.701Z,1.32
2019-06-08T09:00:48.724Z,1.40
2019-06-08T09:03:28.741Z,1.92
2019-06-08T09:05:48.291Z,1.25
2019-06-08T09:08:18.210Z,1.32
2019-06-08T09:10:48.089Z,1.50
2019-06-08T09:13:18.560Z,1.35
2019-06-08T09:15:48.006Z,1.40
2019-06-08T09:18:18.630Z,1.77
2019-06-08T09:20:47.877Z,1.25
2019-06-08T09:23:21.138Z,1.42
2019-06-08T09:25:48.306Z,1.42
2019-06-08T09:28:18.370Z,1.42
2019-06-08T09:30:48.216Z,1.40
2019-06-08T09:33:18.586Z,1.60
2019-06-08T09:35:47.817Z,1.40
2019-06-08T09:38:18.392Z,1.30
2019-06-08T09:40:45.654Z,1.40
2019-06-08T09:43:13.857Z,1.82
2019-06-08T09:45:42.137Z,1.50
2019-06-08T09:48:10.402Z,1.30
2019-06-08T09:50:38.668Z,1.40
2019-06-08T09:53:23.077Z,1.52
2019-06-08T09:55:38.187Z,1.87
2019-06-08T09:58:11.232Z,1.55
2019-06-08T10:00:37.902Z,2.52
2019-06-08T10:03:09.184Z,1.52
2019-06-08T10:05:38.677Z,2.22
2019-06-08T10:08:07.034Z,1.50
2019-06-08T10:10:36.172Z,1.60
2019-06-08T10:13:06.543Z,1.45
2019-06-08T10:15:34.298Z,1.75
2019-06-08T10:18:03.341Z,1.20
2019-06-08T10:20:31.949Z,1.90
2019-06-08T10:23:03.124Z,1.62
2019-06-08T10:25:30.653Z,1.72
2019-06-08T10:28:04.089Z,1.35
2019-06-08T10:30:30.404Z,1.40
2019-06-08T10:33:01.782Z,2.47
2019-06-08T10:35:28.723Z,1.35
2019-06-08T10:38:01.507Z,1.40
2019-06-08T10:40:28.570Z,1.07
2019-06-08T10:42:59.802Z,1.60
2019-06-08T10:45:28.570Z,1.40
2019-06-08T10:47:59.385Z,1.50
2019-06-08T10:50:28.688Z,1.52
2019-06-08T10:52:59.411Z,1.55
2019-06-08T10:55:28.048Z,1.27
2019-06-08T10:57:56.374Z,1.70
2019-06-08T11:00:24.822Z,1.80
2019-06-08T11:02:53.009Z,1.57
2019-06-08T11:05:21.387Z,3.50
2019-06-08T11:07:49.570Z,1.40
2019-06-08T11:10:19.110Z,1.30
2019-06-08T11:12:48.513Z,1.17
2019-06-08T11:15:17.037Z,1.40
2019-06-08T11:17:45.427Z,1.60
2019-06-08T11:20:13.904Z,1.95
2019-06-08T11:22:42.260Z,1.50
2019-06-08T11:27:47.528Z,1.22
2019-06-08T11:30:23.720Z,1.40
2019-06-08T11:32:48.065Z,1.40
2019-06-08T11:35:17.712Z,1.70
2019-06-08T11:37:48.693Z,1.50
2019-06-08T11:40:18.082Z,1.25
2019-06-08T11:42:48.402Z,1.50
2019-06-08T11:45:17.760Z,1.42
2019-06-08T11:47:48.397Z,1.27
2019-06-08T11:50:18.293Z,1.40
2019-06-08T11:52:49.194Z,1.30
2019-06-08T11:55:18.128Z,1.32
2019-06-08T11:57:48.760Z,1.47
2019-06-08T12:00:35.073Z,1.55
2019-06-08T12:03:06.327Z,1.25
2019-06-08T12:05:34.806Z,1.50
2019-06-08T12:08:04.319Z,1.35
2019-06-08T12:10:32.683Z,1.65
2019-06-08T12:13:00.875Z,1.27
2019-06-08T12:15:29.170Z,1.60
2019-06-08T12:17:58.682Z,1.57
2019-06-08T12:20:27.966Z,1.60
2019-06-08T12:22:56.477Z,1.40
2019-06-08T12:25:24.662Z,1.30
2019-06-08T12:27:52.898Z,1.22
2019-06-08T12:30:25.832Z,1.70
2019-06-08T12:32:51.007Z,1.52
2019-06-08T12:35:19.243Z,1.20
2019-06-08T12:37:48.351Z,1.20
2019-06-08T12:40:19.412Z,1.22
2019-06-08T12:42:47.951Z,1.30
2019-06-08T12:45:18.656Z,1.12
2019-06-08T12:47:47.781Z,1.10
2019-06-08T12:50:16.597Z,1.50
2019-06-08T12:52:44.937Z,1.37
2019-06-08T12:55:19.388Z,1.40
2019-06-08T12:57:43.430Z,1.30
2019-06-08T13:00:13.199Z,1.20
2019-06-08T13:02:41.562Z,1.90
2019-06-08T13:05:12.453Z,1.40
2019-06-08T13:07:39.835Z,1.27
2019-06-08T13:10:08.813Z,1.42
2019-06-08T13:12:40.528Z,1.57
2019-06-08T13:15:08.444Z,1.40
2019-06-08T13:17:38.074Z,1.57
2019-06-08T13:20:09.111Z,1.82
2019-06-08T13:22:39.124Z,1.30
2019-06-08T13:25:20.074Z,1.30
2019-06-08T13:27:37.980Z,1.77
2019-06-08T13:30:07.523Z,1.40
2019-06-08T13:32:38.257Z,1.40
2019-06-08T13:35:08.112Z,1.30
2019-06-08T13:37:35.824Z,1.30
2019-06-08T13:40:05.081Z,1.30
2019-06-08T13:42:33.271Z,2.90
2019-06-08T13:45:01.474Z,1.40
2019-06-08T13:47:29.869Z,1.17
2019-06-08T13:49:58.119Z,1.87
2019-06-08T13:52:28.151Z,1.25
2019-06-08T13:54:58.211Z,1.15
2019-06-08T13:57:26.074Z,1.17
2019-06-08T13:59:54.266Z,1.30
2019-06-08T14:02:28.066Z,1.57
2019-06-08T14:04:52.351Z,1.52
2019-06-08T14:07:26.767Z,1.40
2019-06-08T14:09:53.629Z,1.35
2019-06-08T14:12:24.033Z,1.20
2019-06-08T14:14:51.714Z,1.12
2019-06-08T14:17:22.297Z,1.40
2019-06-08T14:19:51.610Z,1.20
2019-06-08T14:22:22.622Z,1.57
2019-06-08T14:24:49.709Z,1.10
2019-06-08T14:27:17.893Z,1.50
2019-06-08T14:29:46.080Z,1.87
2019-06-08T14:32:14.283Z,1.37
2019-06-08T14:34:42.494Z,1.95
2019-06-08T14:37:10.782Z,1.50
2019-06-08T14:39:38.961Z,1.10
2019-06-08T14:42:08.361Z,1.20
2019-06-08T14:44:38.037Z,1.10
2019-06-08T14:47:15.603Z,1.12
2019-06-08T14:49:44.575Z,1.40
2019-06-08T14:52:12.766Z,1.70
2019-06-08T14:54:40.977Z,1.20
2019-06-08T14:57:09.177Z,1.40
2019-06-08T14:59:37.348Z,1.40
2019-06-08T15:02:07.601Z,1.35
2019-06-08T15:04:36.742Z,1.17
2019-06-08T15:07:09.265Z,1.10
2019-06-08T15:09:37.591Z,1.05
2019-06-08T15:12:05.902Z,1.17
2019-06-08T15:14:35.550Z,1.30
2019-06-08T15:17:04.055Z,1.30
2019-06-08T15:19:32.659Z,1.27
2019-06-08T15:22:01.017Z,3.98
2019-06-08T15:24:30.815Z,1.60
2019-06-08T15:26:59.160Z,1.05
2019-06-08T15:29:30.717Z,1.32
2019-06-08T15:31:58.931Z,1.20
2019-06-08T15:34:30.212Z,1.00
2019-06-08T15:36:58.720Z,1.70
2019-06-08T15:39:31.891Z,1.30
2019-06-08T15:42:00.179Z,1.40
2019-06-08T15:44:30.683Z,1.15
2019-06-08T15:47:01.368Z,1.05
2019-06-08T15:49:32.290Z,1.37
2019-06-08T15:52:01.481Z,1.20
2019-06-08T15:54:36.270Z,1.60
2019-06-08T15:57:02.516Z,2.20
2019-06-08T15:59:37.908Z,1.60
2019-06-08T16:02:02.786Z,1.60
2019-06-08T16:04:33.805Z,1.37
2019-06-08T16:07:02.678Z,1.40
2019-06-08T16:09:32.129Z,1.30
2019-06-08T16:12:00.959Z,1.30
2019-06-08T16:14:30.942Z,1.47
2019-06-08T16:16:59.817Z,1.40
2019-06-08T16:19:29.604Z,1.90
2019-06-08T16:21:58.380Z,1.27
2019-06-08T16:24:27.826Z,1.20
2019-06-08T16:26:57.156Z,1.47
2019-06-08T16:29:26.755Z,1.13
2019-06-08T16:31:55.329Z,2.00
2019-06-08T16:34:23.571Z,1.60
2019-06-08T16:36:51.803Z,1.20
2019-06-08T16:39:20.059Z,1.30
2019-06-08T16:41:48.262Z,1.50
2019-06-08T16:44:16.472Z,1.60
2019-06-08T16:46:44.678Z,1.53
2019-06-08T16:49:12.866Z,1.30
2019-06-08T16:51:41.050Z,1.60
2019-06-08T16:54:09.254Z,1.33
2019-06-08T16:56:37.442Z,1.30
2019-06-08T16:59:05.658Z,1.30
2019-06-08T17:01:34.736Z,1.20
2019-06-08T17:04:03.106Z,1.50
2019-06-08T17:06:31.544Z,1.57
2019-06-08T17:08:59.739Z,1.33
2019-06-08T17:11:27.936Z,1.40
2019-06-08T17:13:56.118Z,1.40
2019-06-08T17:16:24.304Z,1.63
2019-06-08T17:18:55.672Z,1.50
2019-06-08T17:21:22.399Z,1.40
2019-06-08T17:23:50.598Z,1.57
2019-06-08T17:26:18.783Z,1.50
2019-06-08T17:28:46.976Z,2.07
2019-06-08T17:31:15.446Z,1.40
2019-06-08T17:33:43.626Z,1.40
2019-06-08T17:36:11.846Z,1.20
2019-06-08T17:38:41.384Z,1.10
2019-06-08T17:41:09.691Z,1.40
2019-06-08T17:43:38.239Z,1.50
2019-06-08T17:46:06.535Z,1.30
2019-06-08T17:48:34.949Z,2.10
2019-06-08T17:51:03.102Z,1.43
2019-06-08T17:53:32.663Z,1.40
2019-06-08T17:56:01.058Z,1.57
2019-06-08T17:58:29.248Z,1.50
2019-06-08T18:00:57.434Z,1.60
2019-06-08T18:03:27.845Z,1.80
2019-06-08T18:05:57.686Z,1.40
2019-06-08T18:08:28.066Z,1.90
2019-06-08T18:10:57.443Z,1.60
2019-06-08T18:13:27.140Z,1.33
2019-06-08T18:15:57.456Z,2.20
2019-06-08T18:18:25.114Z,1.63
2019-06-08T18:20:53.305Z,1.90
2019-06-08T18:23:21.521Z,1.50
2019-06-08T18:25:49.775Z,2.10
2019-06-08T18:28:17.979Z,2.00
2019-06-08T18:30:49.194Z,2.27
2019-06-08T18:33:18.138Z,2.00
2019-06-08T18:35:49.142Z,3.17
2019-06-08T18:38:17.911Z,3.80
2019-06-08T18:40:48.393Z,2.37
2019-06-08T18:43:17.072Z,2.33
2019-06-08T18:45:48.429Z,2.23
2019-06-08T18:48:17.642Z,2.07
2019-06-08T18:50:48.529Z,2.10
2019-06-08T18:53:16.051Z,2.10
2019-06-08T18:55:45.671Z,1.80
2019-06-08T18:58:22.066Z,2.77
2019-06-08T19:00:48.707Z,2.30
2019-06-08T19:03:13.918Z,3.37
2019-06-08T19:05:45.442Z,2.23
2019-06-08T19:08:12.018Z,1.73
2019-06-08T19:10:41.127Z,2.00
2019-06-08T19:13:10.251Z,2.40
2019-06-08T19:15:42.266Z,2.23
2019-06-08T19:18:08.403Z,1.90
2019-06-08T19:20:40.744Z,2.13
2019-06-08T19:23:09.038Z,2.30
2019-06-08T19:25:42.113Z,2.10
2019-06-08T19:28:07.792Z,2.17
2019-06-08T19:30:39.475Z,2.37
2019-06-08T19:33:07.322Z,9.43
2019-06-08T19:35:35.968Z,2.50
2019-06-08T19:38:04.139Z,2.87
2019-06-08T19:40:32.324Z,1.97
2019-06-08T19:43:01.547Z,2.20
2019-06-08T19:45:29.923Z,2.00
2019-06-08T19:47:58.119Z,2.10
2019-06-08T19:50:28.631Z,1.83
2019-06-08T19:52:58.035Z,2.00
2019-06-08T19:55:26.095Z,1.97
2019-06-08T19:57:54.286Z,2.10
2019-06-08T20:00:22.490Z,2.23
2019-06-08T20:02:53.386Z,2.10
2019-06-08T20:05:20.579Z,2.20
2019-06-08T20:07:49.120Z,2.27
2019-06-08T20:10:18.083Z,2.33
2019-06-08T20:12:48.335Z,2.93
2019-06-08T20:15:18.427Z,2.57
2019-06-08T20:17:48.888Z,2.47
2019-06-08T20:20:18.281Z,4.90
2019-06-08T20:22:49.014Z,2.63
2019-06-08T20:25:17.393Z,2.63
2019-06-08T20:27:49.887Z,2.77
2019-06-08T20:30:17.418Z,2.30
2019-06-08T20:32:47.234Z,2.40
2019-06-08T20:35:17.444Z,2.67
2019-06-08T20:37:45.785Z,3.03
2019-06-08T20:40:14.433Z,2.50
2019-06-08T20:42:44.116Z,2.93
2019-06-08T20:45:12.539Z,2.70
2019-06-08T20:47:40.734Z,3.10
2019-06-08T20:50:09.086Z,2.53
2019-06-08T20:52:37.886Z,3.10
2019-06-08T20:55:07.887Z,2.83
2019-06-08T20:57:36.246Z,2.70
2019-06-08T21:00:11.009Z,2.63
2019-06-08T21:02:37.238Z,2.40
2019-06-08T21:05:09.071Z,2.37
2019-06-08T21:07:37.254Z,2.40
2019-06-08T21:10:08.295Z,2.37
2019-06-08T21:12:37.759Z,2.50
2019-06-08T21:15:07.080Z,3.80
2019-06-08T21:17:38.216Z,3.30
2019-06-08T21:20:05.360Z,4.07
2019-06-08T21:22:33.564Z,2.90
2019-06-08T21:25:01.764Z,3.00
2019-06-08T21:27:29.955Z,3.30
2019-06-08T21:30:06.708Z,3.47
2019-06-08T21:32:28.039Z,4.43
2019-06-08T21:35:00.018Z,3.30
2019-06-08T21:37:28.050Z,3.03
2019-06-08T21:40:02.806Z,3.00
2019-06-08T21:42:27.775Z,3.13
2019-06-08T21:44:59.413Z,3.37
2019-06-08T21:47:27.198Z,3.10
2019-06-08T21:49:59.206Z,3.13
2019-06-08T21:52:25.555Z,3.50
2019-06-08T21:54:54.366Z,3.03
2019-06-08T21:57:22.746Z,4.47
2019-06-08T22:00:09.632Z,3.40
2019-06-08T22:02:20.974Z,3.43
2019-06-08T22:04:49.656Z,3.43
2019-06-08T22:07:18.031Z,3.80
2019-06-08T22:09:47.968Z,3.03
2019-06-08T22:12:17.361Z,2.90
2019-06-08T22:14:47.349Z,2.77
2019-06-08T22:17:18.416Z,3.37
2019-06-08T22:19:47.466Z,6.93
2019-06-08T22:22:15.474Z,3.87
2019-06-08T22:24:43.669Z,2.87
2019-06-08T22:27:11.865Z,4.13
2019-06-08T22:29:40.067Z,4.07
2019-06-08T22:32:08.254Z,3.00
2019-06-08T22:34:37.227Z,3.57
2019-06-08T22:37:08.334Z,3.30
2019-06-08T22:39:37.426Z,8.47
2019-06-08T22:42:08.129Z,7.73
2019-06-08T22:44:37.562Z,5.33
2019-06-08T22:47:08.101Z,4.40
2019-06-08T22:49:38.233Z,3.57
2019-06-08T22:52:07.971Z,3.83
2019-06-08T22:54:38.156Z,3.67
2019-06-08T22:57:08.000Z,3.80
2019-06-08T22:59:37.176Z,3.43
2019-06-08T23:02:08.706Z,3.70
2019-06-08T23:04:35.521Z,3.70
2019-06-08T23:07:06.150Z,3.60
2019-06-08T23:09:33.643Z,4.20
2019-06-08T23:12:04.638Z,3.60
2019-06-08T23:14:31.742Z,4.33
2019-06-08T23:17:02.263Z,5.47
2019-06-08T23:19:29.851Z,4.20
2019-06-08T23:21:59.834Z,6.60
2019-06-08T23:24:27.947Z,4.30
2019-06-08T23:26:56.136Z,4.43
2019-06-08T23:29:24.319Z,3.50
2019-06-08T23:31:52.518Z,3.90
2019-06-08T23:34:23.161Z,4.43
2019-06-08T23:36:58.551Z,3.77
2019-06-08T23:39:20.994Z,3.30
2019-06-08T23:41:49.178Z,4.43
2019-06-08T23:44:17.723Z,6.53
2019-06-08T23:46:47.625Z,4.40
2019-06-08T23:49:18.582Z,4.33
2019-06-08T23:51:47.545Z,4.20
2019-06-08T23:54:18.234Z,3.97
2019-06-08T23:56:47.703Z,4.27
2019-06-08T23:59:17.674Z,4.37
